CheckWX is a tool to help pilots better visualize weather data.  It is not intended as a substitute for an official pre-flight weather briefing.

14:20:21 UTC

9A5 METAR
Barwick Lafayette Airport
Lafayette, Georgia, USA
Current

25 mins ago

K9A5 261355Z AUTO 28007G16KT 260V340 10SM SCT032 SCT041 OVC048 16/10 A2985 RMK AO2 T01600100
Observed
Apr-26 @ 13:55 UTC
Wind
  • 280° at 7 KTS
  • Gusting to 16 KTS
Visibility
10 SM
Flight Rules
VFR
Cloud Levels
  • Scattered at 3,200' AGL
  • Scattered at 4,100' AGL
  • Overcast at 4,800' AGL
Temperature
16°C / 61°F
Dewpoint
10°C / 50°F
Humidity
68%
Altimeter
29.85" Hg
Pressure
1010.82 hPa
Previous

45 mins ago

K9A5 261335Z AUTO 31004G14KT 10SM SCT030 BKN046 OVC049 16/10 A2985 RMK AO2 T01620103
Observed
Apr-26 @ 13:35 UTC
Wind
  • 310° at 4 KTS
  • Gusting to 14 KTS
Visibility
10 SM
Flight Rules
VFR
Cloud Levels
  • Scattered at 3,000' AGL
  • Broken at 4,600' AGL
  • Overcast at 4,900' AGL
Temperature
16°C / 61°F
Dewpoint
10°C / 50°F
Humidity
68%
Altimeter
29.85" Hg
Pressure
1010.82 hPa
Previous

1 hour ago

K9A5 261315Z AUTO 28007KT 10SM SCT032 BKN047 16/11 A2984 RMK AO2 T01630105
Observed
Apr-26 @ 13:15 UTC
Wind
  • 280° at 7 KTS
Visibility
10 SM
Flight Rules
VFR
Cloud Levels
  • Scattered at 3,200' AGL
  • Broken at 4,700' AGL
Temperature
16°C / 61°F
Dewpoint
11°C / 52°F
Humidity
72%
Altimeter
29.84" Hg
Pressure
1010.52 hPa